sensor_id;sensor_type;location;lat;lon;timestamp;P1;durP1;ratioP1;P2;durP2;ratioP2
19386;SDS011;9829;48.142;16.382;2022-07-06T00:02:20;4.75;;;4.07;;
19386;SDS011;9829;48.142;16.382;2022-07-06T00:04:47;4.85;;;3.88;;
19386;SDS011;9829;48.142;16.382;2022-07-06T00:07:14;6.07;;;3.78;;
19386;SDS011;9829;48.142;16.382;2022-07-06T00:09:42;4.00;;;3.70;;
19386;SDS011;9829;48.142;16.382;2022-07-06T00:12:09;5.80;;;4.38;;
19386;SDS011;9829;48.142;16.382;2022-07-06T00:14:36;6.00;;;4.80;;
19386;SDS011;9829;48.142;16.382;2022-07-06T00:17:03;4.43;;;4.13;;
19386;SDS011;9829;48.142;16.382;2022-07-06T00:19:30;7.55;;;4.40;;
19386;SDS011;9829;48.142;16.382;2022-07-06T00:21:57;4.95;;;4.65;;
19386;SDS011;9829;48.142;16.382;2022-07-06T00:24:24;5.05;;;4.68;;
19386;SDS011;9829;48.142;16.382;2022-07-06T00:26:53;7.88;;;5.10;;
19386;SDS011;9829;48.142;16.382;2022-07-06T00:29:20;4.85;;;4.45;;
19386;SDS011;9829;48.142;16.382;2022-07-06T00:31:47;5.10;;;4.80;;
19386;SDS011;9829;48.142;16.382;2022-07-06T00:34:14;5.50;;;5.15;;
19386;SDS011;9829;48.142;16.382;2022-07-06T00:36:41;5.68;;;5.18;;
19386;SDS011;9829;48.142;16.382;2022-07-06T00:39:07;6.75;;;5.35;;
19386;SDS011;9829;48.142;16.382;2022-07-06T00:41:34;5.93;;;5.43;;
19386;SDS011;9829;48.142;16.382;2022-07-06T00:44:06;5.72;;;5.18;;
19386;SDS011;9829;48.142;16.382;2022-07-06T00:46:34;5.43;;;5.00;;
19386;SDS011;9829;48.142;16.382;2022-07-06T00:49:01;6.90;;;5.55;;
19386;SDS011;9829;48.142;16.382;2022-07-06T00:51:28;5.78;;;5.30;;
19386;SDS011;9829;48.142;16.382;2022-07-06T00:53:57;5.97;;;5.65;;
19386;SDS011;9829;48.142;16.382;2022-07-06T00:56:25;7.13;;;6.22;;
19386;SDS011;9829;48.142;16.382;2022-07-06T00:58:54;6.03;;;5.53;;
19386;SDS011;9829;48.142;16.382;2022-07-06T01:01:22;6.22;;;5.85;;
19386;SDS011;9829;48.142;16.382;2022-07-06T01:03:49;8.20;;;5.40;;
19386;SDS011;9829;48.142;16.382;2022-07-06T01:06:16;6.50;;;6.10;;
19386;SDS011;9829;48.142;16.382;2022-07-06T01:08:43;7.28;;;6.60;;
19386;SDS011;9829;48.142;16.382;2022-07-06T01:11:10;6.80;;;6.30;;
19386;SDS011;9829;48.142;16.382;2022-07-06T01:13:37;6.50;;;6.10;;
19386;SDS011;9829;48.142;16.382;2022-07-06T01:16:05;6.82;;;6.32;;
19386;SDS011;9829;48.142;16.382;2022-07-06T01:18:33;6.88;;;6.38;;
19386;SDS011;9829;48.142;16.382;2022-07-06T01:21:09;6.88;;;6.28;;
19386;SDS011;9829;48.142;16.382;2022-07-06T01:23:40;6.03;;;5.63;;
19386;SDS011;9829;48.142;16.382;2022-07-06T01:26:09;7.53;;;6.75;;
19386;SDS011;9829;48.142;16.382;2022-07-06T01:28:37;6.90;;;6.50;;
19386;SDS011;9829;48.142;16.382;2022-07-06T01:31:04;8.45;;;6.43;;
19386;SDS011;9829;48.142;16.382;2022-07-06T01:33:30;7.85;;;7.03;;
19386;SDS011;9829;48.142;16.382;2022-07-06T01:35:58;6.43;;;5.97;;
19386;SDS011;9829;48.142;16.382;2022-07-06T01:38:26;6.63;;;6.18;;
19386;SDS011;9829;48.142;16.382;2022-07-06T01:40:53;6.93;;;6.43;;
19386;SDS011;9829;48.142;16.382;2022-07-06T01:43:20;7.18;;;6.47;;
19386;SDS011;9829;48.142;16.382;2022-07-06T01:45:46;7.60;;;7.00;;
19386;SDS011;9829;48.142;16.382;2022-07-06T01:48:13;7.20;;;6.70;;
19386;SDS011;9829;48.142;16.382;2022-07-06T01:50:40;6.63;;;6.13;;
19386;SDS011;9829;48.142;16.382;2022-07-06T01:53:07;6.60;;;5.95;;
19386;SDS011;9829;48.142;16.382;2022-07-06T01:55:35;7.32;;;6.65;;
19386;SDS011;9829;48.142;16.382;2022-07-06T01:58:02;6.97;;;6.38;;
19386;SDS011;9829;48.142;16.382;2022-07-06T02:00:29;7.20;;;6.70;;
19386;SDS011;9829;48.142;16.382;2022-07-06T02:02:56;6.07;;;5.72;;
19386;SDS011;9829;48.142;16.382;2022-07-06T02:05:23;6.70;;;6.28;;
19386;SDS011;9829;48.142;16.382;2022-07-06T02:07:49;6.40;;;5.85;;
19386;SDS011;9829;48.142;16.382;2022-07-06T02:10:17;7.18;;;6.50;;
19386;SDS011;9829;48.142;16.382;2022-07-06T02:12:45;6.65;;;6.15;;
19386;SDS011;9829;48.142;16.382;2022-07-06T02:15:12;10.18;;;7.03;;
19386;SDS011;9829;48.142;16.382;2022-07-06T02:17:39;6.57;;;6.10;;
19386;SDS011;9829;48.142;16.382;2022-07-06T02:20:06;7.50;;;6.78;;
19386;SDS011;9829;48.142;16.382;2022-07-06T02:22:33;6.95;;;6.45;;
19386;SDS011;9829;48.142;16.382;2022-07-06T02:25:00;7.57;;;6.90;;
19386;SDS011;9829;48.142;16.382;2022-07-06T02:27:27;6.70;;;6.10;;
19386;SDS011;9829;48.142;16.382;2022-07-06T02:29:56;6.45;;;6.05;;
19386;SDS011;9829;48.142;16.382;2022-07-06T02:32:23;9.38;;;6.43;;
19386;SDS011;9829;48.142;16.382;2022-07-06T02:34:49;7.72;;;6.43;;
19386;SDS011;9829;48.142;16.382;2022-07-06T02:37:17;6.93;;;6.32;;
19386;SDS011;9829;48.142;16.382;2022-07-06T02:39:44;6.55;;;6.05;;
19386;SDS011;9829;48.142;16.382;2022-07-06T02:42:11;7.32;;;6.82;;
19386;SDS011;9829;48.142;16.382;2022-07-06T02:44:38;6.22;;;5.82;;
19386;SDS011;9829;48.142;16.382;2022-07-06T02:47:06;6.15;;;5.50;;
19386;SDS011;9829;48.142;16.382;2022-07-06T02:49:33;6.40;;;5.75;;
19386;SDS011;9829;48.142;16.382;2022-07-06T02:52:00;5.97;;;5.55;;
19386;SDS011;9829;48.142;16.382;2022-07-06T02:54:27;12.32;;;5.82;;
19386;SDS011;9829;48.142;16.382;2022-07-06T02:56:54;6.13;;;5.75;;
19386;SDS011;9829;48.142;16.382;2022-07-06T02:59:21;7.05;;;6.28;;
19386;SDS011;9829;48.142;16.382;2022-07-06T03:01:48;5.97;;;5.68;;
19386;SDS011;9829;48.142;16.382;2022-07-06T03:04:16;5.63;;;5.20;;
19386;SDS011;9829;48.142;16.382;2022-07-06T03:06:43;7.75;;;5.28;;
19386;SDS011;9829;48.142;16.382;2022-07-06T03:09:10;5.78;;;5.30;;
19386;SDS011;9829;48.142;16.382;2022-07-06T03:11:36;7.35;;;5.43;;
19386;SDS011;9829;48.142;16.382;2022-07-06T03:14:03;6.15;;;5.32;;
19386;SDS011;9829;48.142;16.382;2022-07-06T03:16:31;5.80;;;5.22;;
19386;SDS011;9829;48.142;16.382;2022-07-06T03:18:58;5.95;;;5.45;;
19386;SDS011;9829;48.142;16.382;2022-07-06T03:21:27;6.70;;;5.97;;
19386;SDS011;9829;48.142;16.382;2022-07-06T03:23:53;8.32;;;5.53;;
19386;SDS011;9829;48.142;16.382;2022-07-06T03:26:20;9.98;;;6.25;;
19386;SDS011;9829;48.142;16.382;2022-07-06T03:28:47;6.38;;;5.80;;
19386;SDS011;9829;48.142;16.382;2022-07-06T03:31:14;7.10;;;6.50;;
19386;SDS011;9829;48.142;16.382;2022-07-06T03:33:41;6.10;;;5.65;;
19386;SDS011;9829;48.142;16.382;2022-07-06T03:36:08;6.47;;;6.07;;
19386;SDS011;9829;48.142;16.382;2022-07-06T03:38:37;6.70;;;6.20;;
19386;SDS011;9829;48.142;16.382;2022-07-06T03:41:04;7.55;;;5.88;;
19386;SDS011;9829;48.142;16.382;2022-07-06T03:43:31;6.43;;;6.00;;
19386;SDS011;9829;48.142;16.382;2022-07-06T03:45:58;5.60;;;5.30;;
19386;SDS011;9829;48.142;16.382;2022-07-06T03:48:25;6.15;;;5.55;;
19386;SDS011;9829;48.142;16.382;2022-07-06T03:50:52;6.82;;;5.70;;
19386;SDS011;9829;48.142;16.382;2022-07-06T03:53:19;6.32;;;4.72;;
19386;SDS011;9829;48.142;16.382;2022-07-06T03:55:47;9.27;;;5.45;;
19386;SDS011;9829;48.142;16.382;2022-07-06T03:58:28;5.45;;;4.97;;
19386;SDS011;9829;48.142;16.382;2022-07-06T04:00:55;8.98;;;4.80;;
19386;SDS011;9829;48.142;16.382;2022-07-06T04:03:21;5.43;;;4.53;;
19386;SDS011;9829;48.142;16.382;2022-07-06T04:05:48;6.20;;;4.90;;
19386;SDS011;9829;48.142;16.382;2022-07-06T04:08:15;4.53;;;4.22;;
19386;SDS011;9829;48.142;16.382;2022-07-06T04:10:42;4.55;;;4.22;;
19386;SDS011;9829;48.142;16.382;2022-07-06T04:13:10;4.72;;;4.20;;
19386;SDS011;9829;48.142;16.382;2022-07-06T04:15:37;7.18;;;4.13;;
19386;SDS011;9829;48.142;16.382;2022-07-06T04:18:04;6.40;;;3.83;;
19386;SDS011;9829;48.142;16.382;2022-07-06T04:20:31;6.82;;;3.80;;
19386;SDS011;9829;48.142;16.382;2022-07-06T04:22:58;4.20;;;3.70;;
19386;SDS011;9829;48.142;16.382;2022-07-06T04:25:25;5.82;;;3.63;;
19386;SDS011;9829;48.142;16.382;2022-07-06T04:27:52;3.78;;;3.40;;
19386;SDS011;9829;48.142;16.382;2022-07-06T04:30:21;3.65;;;3.35;;
19386;SDS011;9829;48.142;16.382;2022-07-06T04:32:48;3.60;;;3.30;;
19386;SDS011;9829;48.142;16.382;2022-07-06T04:35:14;5.72;;;3.15;;
19386;SDS011;9829;48.142;16.382;2022-07-06T04:37:41;3.40;;;3.20;;
19386;SDS011;9829;48.142;16.382;2022-07-06T04:40:10;6.72;;;3.50;;
19386;SDS011;9829;48.142;16.382;2022-07-06T04:42:38;6.32;;;3.60;;
19386;SDS011;9829;48.142;16.382;2022-07-06T04:45:05;6.00;;;3.00;;
19386;SDS011;9829;48.142;16.382;2022-07-06T04:47:33;11.63;;;3.10;;
19386;SDS011;9829;48.142;16.382;2022-07-06T04:50:01;6.00;;;2.83;;
19386;SDS011;9829;48.142;16.382;2022-07-06T04:52:28;3.03;;;2.63;;
19386;SDS011;9829;48.142;16.382;2022-07-06T04:54:54;5.05;;;2.75;;
19386;SDS011;9829;48.142;16.382;2022-07-06T04:57:21;4.93;;;2.58;;
19386;SDS011;9829;48.142;16.382;2022-07-06T04:59:50;2.60;;;2.40;;
19386;SDS011;9829;48.142;16.382;2022-07-06T05:02:17;5.35;;;2.42;;
19386;SDS011;9829;48.142;16.382;2022-07-06T05:04:45;5.60;;;2.40;;
19386;SDS011;9829;48.142;16.382;2022-07-06T05:07:12;5.57;;;2.10;;
19386;SDS011;9829;48.142;16.382;2022-07-06T05:09:40;5.60;;;1.85;;
19386;SDS011;9829;48.142;16.382;2022-07-06T05:12:08;7.25;;;1.90;;
19386;SDS011;9829;48.142;16.382;2022-07-06T05:14:35;2.22;;;1.50;;
19386;SDS011;9829;48.142;16.382;2022-07-06T05:17:03;2.20;;;1.80;;
19386;SDS011;9829;48.142;16.382;2022-07-06T05:19:30;2.90;;;1.35;;
19386;SDS011;9829;48.142;16.382;2022-07-06T05:21:58;1.42;;;1.30;;
19386;SDS011;9829;48.142;16.382;2022-07-06T05:24:25;3.45;;;1.27;;
19386;SDS011;9829;48.142;16.382;2022-07-06T05:26:52;3.72;;;1.50;;
19386;SDS011;9829;48.142;16.382;2022-07-06T05:29:19;5.50;;;1.35;;
19386;SDS011;9829;48.142;16.382;2022-07-06T05:31:46;9.25;;;1.67;;
19386;SDS011;9829;48.142;16.382;2022-07-06T05:34:13;4.03;;;1.40;;
19386;SDS011;9829;48.142;16.382;2022-07-06T05:36:40;3.65;;;1.40;;
19386;SDS011;9829;48.142;16.382;2022-07-06T05:39:08;3.05;;;1.40;;
19386;SDS011;9829;48.142;16.382;2022-07-06T05:41:35;9.65;;;1.40;;
19386;SDS011;9829;48.142;16.382;2022-07-06T05:44:02;5.28;;;1.20;;
19386;SDS011;9829;48.142;16.382;2022-07-06T05:46:29;6.88;;;1.20;;
19386;SDS011;9829;48.142;16.382;2022-07-06T05:48:56;2.05;;;1.15;;
19386;SDS011;9829;48.142;16.382;2022-07-06T05:51:40;7.05;;;1.48;;
19386;SDS011;9829;48.142;16.382;2022-07-06T05:54:08;7.38;;;1.38;;
19386;SDS011;9829;48.142;16.382;2022-07-06T05:56:35;6.47;;;1.52;;
19386;SDS011;9829;48.142;16.382;2022-07-06T05:59:02;4.70;;;1.10;;
19386;SDS011;9829;48.142;16.382;2022-07-06T06:01:29;8.55;;;1.50;;
19386;SDS011;9829;48.142;16.382;2022-07-06T06:03:56;1.50;;;1.20;;
19386;SDS011;9829;48.142;16.382;2022-07-06T06:06:24;2.47;;;1.10;;
19386;SDS011;9829;48.142;16.382;2022-07-06T06:08:51;4.65;;;1.20;;
19386;SDS011;9829;48.142;16.382;2022-07-06T06:11:19;10.48;;;1.30;;
19386;SDS011;9829;48.142;16.382;2022-07-06T06:13:47;3.42;;;1.30;;
19386;SDS011;9829;48.142;16.382;2022-07-06T06:16:14;5.65;;;1.40;;
19386;SDS011;9829;48.142;16.382;2022-07-06T06:18:41;3.58;;;1.30;;
19386;SDS011;9829;48.142;16.382;2022-07-06T06:21:08;9.30;;;1.20;;
19386;SDS011;9829;48.142;16.382;2022-07-06T06:23:36;2.65;;;1.08;;
19386;SDS011;9829;48.142;16.382;2022-07-06T06:26:03;1.80;;;1.30;;
19386;SDS011;9829;48.142;16.382;2022-07-06T06:28:31;3.72;;;1.10;;
19386;SDS011;9829;48.142;16.382;2022-07-06T06:30:58;3.40;;;1.30;;
19386;SDS011;9829;48.142;16.382;2022-07-06T06:33:25;9.18;;;1.40;;
19386;SDS011;9829;48.142;16.382;2022-07-06T06:35:52;8.38;;;1.25;;
19386;SDS011;9829;48.142;16.382;2022-07-06T06:38:20;4.13;;;1.35;;
19386;SDS011;9829;48.142;16.382;2022-07-06T06:40:50;3.97;;;1.05;;
19386;SDS011;9829;48.142;16.382;2022-07-06T06:43:18;4.43;;;1.52;;
19386;SDS011;9829;48.142;16.382;2022-07-06T06:45:46;3.17;;;1.30;;
19386;SDS011;9829;48.142;16.382;2022-07-06T06:48:13;7.57;;;1.05;;
19386;SDS011;9829;48.142;16.382;2022-07-06T06:50:40;3.45;;;1.35;;
19386;SDS011;9829;48.142;16.382;2022-07-06T06:53:07;3.63;;;1.50;;
19386;SDS011;9829;48.142;16.382;2022-07-06T06:55:34;4.95;;;1.30;;
19386;SDS011;9829;48.142;16.382;2022-07-06T06:58:01;4.25;;;1.27;;
19386;SDS011;9829;48.142;16.382;2022-07-06T07:00:27;1.85;;;1.10;;
19386;SDS011;9829;48.142;16.382;2022-07-06T07:02:56;5.18;;;1.48;;
19386;SDS011;9829;48.142;16.382;2022-07-06T07:05:23;2.85;;;1.30;;
19386;SDS011;9829;48.142;16.382;2022-07-06T07:07:50;2.00;;;1.10;;
19386;SDS011;9829;48.142;16.382;2022-07-06T07:10:17;1.85;;;0.98;;
19386;SDS011;9829;48.142;16.382;2022-07-06T07:12:44;9.20;;;1.42;;
19386;SDS011;9829;48.142;16.382;2022-07-06T07:15:12;10.32;;;1.55;;
19386;SDS011;9829;48.142;16.382;2022-07-06T07:17:39;7.22;;;1.23;;
19386;SDS011;9829;48.142;16.382;2022-07-06T07:20:08;1.17;;;1.08;;
19386;SDS011;9829;48.142;16.382;2022-07-06T07:22:35;1.73;;;1.20;;
19386;SDS011;9829;48.142;16.382;2022-07-06T07:25:03;3.15;;;1.38;;
19386;SDS011;9829;48.142;16.382;2022-07-06T07:27:31;5.03;;;1.13;;
19386;SDS011;9829;48.142;16.382;2022-07-06T07:29:58;4.18;;;1.50;;
19386;SDS011;9829;48.142;16.382;2022-07-06T07:32:25;6.28;;;1.40;;
19386;SDS011;9829;48.142;16.382;2022-07-06T07:34:51;10.02;;;1.50;;
19386;SDS011;9829;48.142;16.382;2022-07-06T07:37:20;4.78;;;1.35;;
19386;SDS011;9829;48.142;16.382;2022-07-06T07:39:47;8.98;;;1.75;;
19386;SDS011;9829;48.142;16.382;2022-07-06T07:42:14;1.38;;;1.27;;
19386;SDS011;9829;48.142;16.382;2022-07-06T07:44:41;4.75;;;1.17;;
19386;SDS011;9829;48.142;16.382;2022-07-06T07:47:07;3.58;;;0.90;;
19386;SDS011;9829;48.142;16.382;2022-07-06T07:49:35;5.93;;;1.40;;
19386;SDS011;9829;48.142;16.382;2022-07-06T07:52:02;1.45;;;1.10;;
19386;SDS011;9829;48.142;16.382;2022-07-06T07:54:30;5.00;;;1.25;;
19386;SDS011;9829;48.142;16.382;2022-07-06T07:56:57;1.40;;;1.00;;
19386;SDS011;9829;48.142;16.382;2022-07-06T07:59:25;3.13;;;1.17;;
19386;SDS011;9829;48.142;16.382;2022-07-06T08:01:52;5.28;;;1.58;;
19386;SDS011;9829;48.142;16.382;2022-07-06T08:04:19;5.60;;;1.40;;
19386;SDS011;9829;48.142;16.382;2022-07-06T08:06:46;11.98;;;1.60;;
19386;SDS011;9829;48.142;16.382;2022-07-06T08:09:13;1.60;;;1.40;;
19386;SDS011;9829;48.142;16.382;2022-07-06T08:11:43;4.95;;;1.45;;
19386;SDS011;9829;48.142;16.382;2022-07-06T08:14:09;6.60;;;1.40;;
19386;SDS011;9829;48.142;16.382;2022-07-06T08:16:39;4.32;;;1.45;;
19386;SDS011;9829;48.142;16.382;2022-07-06T08:19:06;1.77;;;1.40;;
19386;SDS011;9829;48.142;16.382;2022-07-06T08:21:33;9.30;;;1.40;;
19386;SDS011;9829;48.142;16.382;2022-07-06T08:23:59;3.65;;;1.50;;
19386;SDS011;9829;48.142;16.382;2022-07-06T08:26:27;4.13;;;1.60;;
19386;SDS011;9829;48.142;16.382;2022-07-06T08:28:56;4.53;;;1.65;;
19386;SDS011;9829;48.142;16.382;2022-07-06T08:31:22;8.40;;;1.55;;
19386;SDS011;9829;48.142;16.382;2022-07-06T08:33:49;7.25;;;2.40;;
19386;SDS011;9829;48.142;16.382;2022-07-06T08:36:18;4.85;;;1.85;;
19386;SDS011;9829;48.142;16.382;2022-07-06T08:38:45;9.07;;;1.50;;
19386;SDS011;9829;48.142;16.382;2022-07-06T08:41:12;3.83;;;2.67;;
19386;SDS011;9829;48.142;16.382;2022-07-06T08:43:41;10.88;;;3.10;;
19386;SDS011;9829;48.142;16.382;2022-07-06T08:46:09;3.65;;;1.70;;
19386;SDS011;9829;48.142;16.382;2022-07-06T08:48:40;11.50;;;2.20;;
19386;SDS011;9829;48.142;16.382;2022-07-06T08:51:07;3.13;;;1.58;;
19386;SDS011;9829;48.142;16.382;2022-07-06T08:53:34;2.78;;;1.50;;
19386;SDS011;9829;48.142;16.382;2022-07-06T08:56:02;6.47;;;1.48;;
19386;SDS011;9829;48.142;16.382;2022-07-06T08:58:29;3.97;;;1.48;;
19386;SDS011;9829;48.142;16.382;2022-07-06T09:00:58;5.10;;;1.48;;
19386;SDS011;9829;48.142;16.382;2022-07-06T09:03:26;4.82;;;1.65;;
19386;SDS011;9829;48.142;16.382;2022-07-06T09:05:56;5.95;;;1.20;;
19386;SDS011;9829;48.142;16.382;2022-07-06T09:08:25;2.10;;;1.23;;
19386;SDS011;9829;48.142;16.382;2022-07-06T09:10:53;2.40;;;1.50;;
19386;SDS011;9829;48.142;16.382;2022-07-06T09:13:20;2.45;;;1.50;;
19386;SDS011;9829;48.142;16.382;2022-07-06T09:15:47;2.88;;;1.25;;
19386;SDS011;9829;48.142;16.382;2022-07-06T09:18:14;3.47;;;1.55;;
19386;SDS011;9829;48.142;16.382;2022-07-06T09:20:42;4.18;;;1.25;;
19386;SDS011;9829;48.142;16.382;2022-07-06T09:23:09;4.75;;;1.20;;
19386;SDS011;9829;48.142;16.382;2022-07-06T09:25:41;5.88;;;1.40;;
19386;SDS011;9829;48.142;16.382;2022-07-06T09:28:08;1.33;;;1.20;;
19386;SDS011;9829;48.142;16.382;2022-07-06T09:30:35;5.70;;;1.48;;
19386;SDS011;9829;48.142;16.382;2022-07-06T09:33:05;7.60;;;1.50;;
19386;SDS011;9829;48.142;16.382;2022-07-06T09:35:35;5.47;;;2.35;;
19386;SDS011;9829;48.142;16.382;2022-07-06T09:38:05;8.27;;;5.60;;
19386;SDS011;9829;48.142;16.382;2022-07-06T09:40:35;9.05;;;4.05;;
19386;SDS011;9829;48.142;16.382;2022-07-06T09:43:12;3.70;;;2.67;;
19386;SDS011;9829;48.142;16.382;2022-07-06T09:45:42;7.10;;;1.40;;
19386;SDS011;9829;48.142;16.382;2022-07-06T09:48:10;9.10;;;2.03;;
19386;SDS011;9829;48.142;16.382;2022-07-06T09:50:38;3.35;;;1.83;;
19386;SDS011;9829;48.142;16.382;2022-07-06T09:53:07;6.50;;;1.83;;
19386;SDS011;9829;48.142;16.382;2022-07-06T09:55:34;11.85;;;1.70;;
19386;SDS011;9829;48.142;16.382;2022-07-06T09:58:01;3.00;;;1.30;;
19386;SDS011;9829;48.142;16.382;2022-07-06T10:00:29;4.82;;;1.73;;
19386;SDS011;9829;48.142;16.382;2022-07-06T10:02:56;8.27;;;1.38;;
19386;SDS011;9829;48.142;16.382;2022-07-06T10:05:23;4.50;;;1.40;;
19386;SDS011;9829;48.142;16.382;2022-07-06T10:07:55;5.88;;;1.50;;
19386;SDS011;9829;48.142;16.382;2022-07-06T10:10:25;4.53;;;1.38;;
19386;SDS011;9829;48.142;16.382;2022-07-06T10:12:54;1.83;;;1.20;;
19386;SDS011;9829;48.142;16.382;2022-07-06T10:15:22;4.22;;;1.10;;
19386;SDS011;9829;48.142;16.382;2022-07-06T10:17:50;3.50;;;1.25;;
19386;SDS011;9829;48.142;16.382;2022-07-06T10:20:18;4.50;;;1.38;;
19386;SDS011;9829;48.142;16.382;2022-07-06T10:22:46;3.47;;;1.25;;
19386;SDS011;9829;48.142;16.382;2022-07-06T10:25:13;3.50;;;1.20;;
19386;SDS011;9829;48.142;16.382;2022-07-06T10:27:43;2.03;;;1.30;;
19386;SDS011;9829;48.142;16.382;2022-07-06T10:30:12;3.05;;;1.10;;
19386;SDS011;9829;48.142;16.382;2022-07-06T10:32:40;1.85;;;1.20;;
19386;SDS011;9829;48.142;16.382;2022-07-06T10:35:09;3.45;;;1.58;;
19386;SDS011;9829;48.142;16.382;2022-07-06T10:37:36;4.10;;;1.52;;
19386;SDS011;9829;48.142;16.382;2022-07-06T10:40:03;1.30;;;1.20;;
19386;SDS011;9829;48.142;16.382;2022-07-06T10:42:56;2.67;;;1.25;;
19386;SDS011;9829;48.142;16.382;2022-07-06T10:48:19;3.50;;;1.40;;
19386;SDS011;9829;48.142;16.382;2022-07-06T10:50:48;1.48;;;1.38;;
19386;SDS011;9829;48.142;16.382;2022-07-06T10:53:17;3.97;;;1.90;;
19386;SDS011;9829;48.142;16.382;2022-07-06T10:55:48;6.10;;;1.80;;
19386;SDS011;9829;48.142;16.382;2022-07-06T11:01:07;9.48;;;1.83;;
19386;SDS011;9829;48.142;16.382;2022-07-06T11:03:38;27.58;;;3.65;;
19386;SDS011;9829;48.142;16.382;2022-07-06T11:06:07;9.43;;;3.22;;
19386;SDS011;9829;48.142;16.382;2022-07-06T11:08:50;12.90;;;2.60;;
19386;SDS011;9829;48.142;16.382;2022-07-06T11:11:19;5.60;;;1.83;;
19386;SDS011;9829;48.142;16.382;2022-07-06T11:13:49;4.25;;;2.33;;
19386;SDS011;9829;48.142;16.382;2022-07-06T11:16:23;4.60;;;1.80;;
19386;SDS011;9829;48.142;16.382;2022-07-06T11:18:59;5.22;;;2.60;;
19386;SDS011;9829;48.142;16.382;2022-07-06T11:21:38;3.80;;;3.00;;
19386;SDS011;9829;48.142;16.382;2022-07-06T11:24:13;4.20;;;2.35;;
19386;SDS011;9829;48.142;16.382;2022-07-06T11:26:41;4.57;;;2.22;;
19386;SDS011;9829;48.142;16.382;2022-07-06T11:29:13;4.90;;;2.38;;
19386;SDS011;9829;48.142;16.382;2022-07-06T11:31:41;4.68;;;2.65;;
19386;SDS011;9829;48.142;16.382;2022-07-06T11:34:09;5.45;;;2.40;;
19386;SDS011;9829;48.142;16.382;2022-07-06T11:36:38;7.75;;;2.45;;
19386;SDS011;9829;48.142;16.382;2022-07-06T11:39:06;3.40;;;1.80;;
19386;SDS011;9829;48.142;16.382;2022-07-06T11:41:33;6.63;;;1.70;;
19386;SDS011;9829;48.142;16.382;2022-07-06T11:44:02;3.70;;;1.90;;
19386;SDS011;9829;48.142;16.382;2022-07-06T11:46:31;9.93;;;1.58;;
19386;SDS011;9829;48.142;16.382;2022-07-06T11:48:59;1.50;;;1.40;;
19386;SDS011;9829;48.142;16.382;2022-07-06T11:51:29;1.65;;;1.27;;
19386;SDS011;9829;48.142;16.382;2022-07-06T11:53:57;3.08;;;1.20;;
19386;SDS011;9829;48.142;16.382;2022-07-06T11:56:26;1.88;;;1.10;;
19386;SDS011;9829;48.142;16.382;2022-07-06T11:58:54;5.05;;;1.40;;
19386;SDS011;9829;48.142;16.382;2022-07-06T12:01:22;7.68;;;1.85;;
19386;SDS011;9829;48.142;16.382;2022-07-06T12:03:51;1.52;;;1.27;;
19386;SDS011;9829;48.142;16.382;2022-07-06T12:06:19;4.15;;;1.52;;
19386;SDS011;9829;48.142;16.382;2022-07-06T12:08:47;1.70;;;1.60;;
19386;SDS011;9829;48.142;16.382;2022-07-06T12:11:21;1.83;;;1.70;;
19386;SDS011;9829;48.142;16.382;2022-07-06T12:13:50;5.55;;;2.05;;
19386;SDS011;9829;48.142;16.382;2022-07-06T12:16:17;2.83;;;2.10;;
19386;SDS011;9829;48.142;16.382;2022-07-06T12:18:46;1.92;;;1.83;;
19386;SDS011;9829;48.142;16.382;2022-07-06T12:21:15;4.47;;;2.55;;
19386;SDS011;9829;48.142;16.382;2022-07-06T12:23:47;6.13;;;2.00;;
19386;SDS011;9829;48.142;16.382;2022-07-06T12:26:15;7.32;;;2.47;;
19386;SDS011;9829;48.142;16.382;2022-07-06T12:28:44;2.67;;;2.00;;
19386;SDS011;9829;48.142;16.382;2022-07-06T12:33:57;2.70;;;2.10;;
19386;SDS011;9829;48.142;16.382;2022-07-06T12:36:26;3.25;;;2.10;;
19386;SDS011;9829;48.142;16.382;2022-07-06T12:38:52;4.45;;;2.10;;
19386;SDS011;9829;48.142;16.382;2022-07-06T12:41:26;2.85;;;2.65;;
19386;SDS011;9829;48.142;16.382;2022-07-06T12:44:07;5.13;;;2.38;;
19386;SDS011;9829;48.142;16.382;2022-07-06T12:46:35;6.45;;;2.28;;
19386;SDS011;9829;48.142;16.382;2022-07-06T12:49:11;2.22;;;2.03;;
19386;SDS011;9829;48.142;16.382;2022-07-06T12:51:51;5.43;;;1.90;;
19386;SDS011;9829;48.142;16.382;2022-07-06T12:54:19;7.65;;;1.80;;
19386;SDS011;9829;48.142;16.382;2022-07-06T12:56:56;7.20;;;1.55;;
19386;SDS011;9829;48.142;16.382;2022-07-06T12:59:24;8.23;;;1.55;;
19386;SDS011;9829;48.142;16.382;2022-07-06T13:01:51;4.97;;;1.77;;
19386;SDS011;9829;48.142;16.382;2022-07-06T13:04:21;6.68;;;1.50;;
19386;SDS011;9829;48.142;16.382;2022-07-06T13:06:47;2.28;;;1.85;;
19386;SDS011;9829;48.142;16.382;2022-07-06T13:09:16;2.90;;;1.45;;
19386;SDS011;9829;48.142;16.382;2022-07-06T13:11:44;2.85;;;1.60;;
19386;SDS011;9829;48.142;16.382;2022-07-06T13:14:11;6.80;;;2.08;;
19386;SDS011;9829;48.142;16.382;2022-07-06T13:16:38;3.35;;;1.73;;
19386;SDS011;9829;48.142;16.382;2022-07-06T13:19:04;2.85;;;1.60;;
19386;SDS011;9829;48.142;16.382;2022-07-06T13:21:32;1.58;;;1.48;;
19386;SDS011;9829;48.142;16.382;2022-07-06T13:23:59;3.05;;;1.35;;
19386;SDS011;9829;48.142;16.382;2022-07-06T13:26:27;1.95;;;1.75;;
19386;SDS011;9829;48.142;16.382;2022-07-06T13:28:58;5.97;;;1.83;;
19386;SDS011;9829;48.142;16.382;2022-07-06T13:31:25;2.72;;;1.50;;
19386;SDS011;9829;48.142;16.382;2022-07-06T13:33:52;2.30;;;1.40;;
19386;SDS011;9829;48.142;16.382;2022-07-06T13:36:19;2.30;;;1.52;;
19386;SDS011;9829;48.142;16.382;2022-07-06T13:38:46;2.50;;;1.65;;
19386;SDS011;9829;48.142;16.382;2022-07-06T13:41:13;2.40;;;1.55;;
19386;SDS011;9829;48.142;16.382;2022-07-06T13:43:41;3.22;;;1.55;;
19386;SDS011;9829;48.142;16.382;2022-07-06T13:46:08;15.93;;;1.60;;
19386;SDS011;9829;48.142;16.382;2022-07-06T13:48:36;4.63;;;1.40;;
19386;SDS011;9829;48.142;16.382;2022-07-06T13:51:03;1.73;;;1.30;;
19386;SDS011;9829;48.142;16.382;2022-07-06T13:53:30;5.80;;;1.27;;
19386;SDS011;9829;48.142;16.382;2022-07-06T13:55:57;1.80;;;1.33;;
19386;SDS011;9829;48.142;16.382;2022-07-06T13:58:24;4.05;;;1.70;;
19386;SDS011;9829;48.142;16.382;2022-07-06T14:00:53;1.38;;;1.27;;
19386;SDS011;9829;48.142;16.382;2022-07-06T14:03:20;15.25;;;2.72;;
19386;SDS011;9829;48.142;16.382;2022-07-06T14:05:52;3.83;;;1.40;;
19386;SDS011;9829;48.142;16.382;2022-07-06T14:08:20;1.52;;;1.40;;
19386;SDS011;9829;48.142;16.382;2022-07-06T14:10:47;2.45;;;1.30;;
19386;SDS011;9829;48.142;16.382;2022-07-06T14:13:14;3.03;;;1.10;;
19386;SDS011;9829;48.142;16.382;2022-07-06T14:15:41;1.42;;;1.10;;
19386;SDS011;9829;48.142;16.382;2022-07-06T14:18:10;3.75;;;1.05;;
19386;SDS011;9829;48.142;16.382;2022-07-06T14:20:37;2.67;;;1.20;;
19386;SDS011;9829;48.142;16.382;2022-07-06T14:23:04;4.43;;;1.10;;
19386;SDS011;9829;48.142;16.382;2022-07-06T14:25:31;4.90;;;1.30;;
19386;SDS011;9829;48.142;16.382;2022-07-06T14:27:58;3.42;;;1.20;;
19386;SDS011;9829;48.142;16.382;2022-07-06T14:30:25;4.38;;;1.20;;
19386;SDS011;9829;48.142;16.382;2022-07-06T14:32:52;1.92;;;1.00;;
19386;SDS011;9829;48.142;16.382;2022-07-06T14:35:21;1.33;;;0.95;;
19386;SDS011;9829;48.142;16.382;2022-07-06T14:37:49;3.08;;;1.23;;
19386;SDS011;9829;48.142;16.382;2022-07-06T14:40:16;1.10;;;1.02;;
19386;SDS011;9829;48.142;16.382;2022-07-06T14:42:43;2.80;;;1.42;;
19386;SDS011;9829;48.142;16.382;2022-07-06T14:45:10;3.40;;;1.60;;
19386;SDS011;9829;48.142;16.382;2022-07-06T14:47:37;2.13;;;1.60;;
19386;SDS011;9829;48.142;16.382;2022-07-06T14:50:04;2.05;;;1.50;;
19386;SDS011;9829;48.142;16.382;2022-07-06T14:52:33;3.42;;;1.67;;
19386;SDS011;9829;48.142;16.382;2022-07-06T14:54:59;3.33;;;1.80;;
19386;SDS011;9829;48.142;16.382;2022-07-06T14:57:26;3.55;;;1.70;;
19386;SDS011;9829;48.142;16.382;2022-07-06T14:59:53;10.63;;;2.00;;
19386;SDS011;9829;48.142;16.382;2022-07-06T15:02:20;8.98;;;1.75;;